Nearby METAR Reports

 

KSJC - San Jose, California, USA
Distance from station: NE 9mi, 14km
Updated: Thu, 23-May-2024 9:53am PDT
Clear
Clear
 Wind from calm
Wind: Calm
Temperature: 64°F, 18°C
Dew Point: 46°F, 8°C
Humidity: 52%
Barometer: 29.94 inHg, 1013.9 hPa
Clouds: Clear
Visibility: 10 miles, 16 km
2024/05/23 16:53 KSJC 231653Z 00000KT 10SM CLR 18/08 A2994 RMK AO2 SLP139 T01780078
KNUQ - Moffett Nas/Mtn, California, USA
Distance from station: N 9mi, 14km
Updated: Thu, 23-May-2024 10:35am PDT
Clear
Clear
 Wind from N
Wind: N 5 mph, 7 km/h
Temperature: 63°F, 17°C
Dew Point: 46°F, 8°C
Humidity: 56%
Barometer: 29.94 inHg, 1013.9 hPa
Clouds: Clear
Visibility: 7 miles, 11 km
2024/05/23 17:35 KNUQ 231735Z AUTO 01004KT 7SM CLR 17/08 A2994 RMK AO2
 
KPAO - Palo Alto, California, USA
Distance from station: NNW 14mi, 23km
Updated: Thu, 23-May-2024 9:47am PDT
Clear
Clear
 Wind from varies
Wind: varies 5 mph, 7 km/h
Temperature: 59°F, 15°C
Dew Point: 48°F, 9°C
Humidity: 68%
Barometer: 29.96 inHg, 1014.6 hPa
Clouds: Clear
Visibility: 10 miles, 16 km
2024/05/23 16:47 KPAO 231647Z VRB04KT 10SM SKC 15/09 A2996
KRHV - San Jose/Reid, California, USA
Distance from station: ENE 12mi, 19km
Updated: Thu, 23-May-2024 9:47am PDT
Clear
Clear
 Wind from calm
Wind: Calm
Temperature: 57°F, 14°C
Dew Point: 48°F, 9°C
Humidity: 72%
Barometer: 29.95 inHg, 1014.2 hPa
Clouds: Clear
Visibility: 10 miles, 16 km
2024/05/23 16:47 KRHV 231647Z 00000KT 10SM SKC 14/09 A2995
 
KOAK - Oakland, California, USA
Distance from station: NNW 31mi, 50km
Updated: Thu, 23-May-2024 9:53am PDT
Few Clouds
Few Clouds
 Wind from SSW
Wind: SSW 6 mph, 9 km/h
Temperature: 59°F, 15°C
Dew Point: 46°F, 8°C
Humidity: 63%
Barometer: 29.95 inHg, 1014.2 hPa
Clouds: Few Clouds
Visibility: 10 miles, 16 km
Cloud details: Few Clouds 20000 ft
2024/05/23 16:53 KOAK 231653Z 21005KT 10SM FEW200 15/08 A2995 RMK AO2 SLP142 T01500078
KSQL - San Carlos Airpo, California, USA
Distance from station: NW 21mi, 34km
Updated: Thu, 23-May-2024 9:50am PDT
Clear
Clear
 Wind from varies
Wind: varies 3 mph, 6 km/h
Temperature: 63°F, 17°C
Dew Point: 48°F, 9°C
Humidity: 59%
Barometer: 29.96 inHg, 1014.6 hPa
Clouds: Clear
Visibility: 10 miles, 16 km
2024/05/23 16:50 KSQL 231650Z VRB03KT 10SM CLR 17/09 A2996
 
KSFO - San Francisco, California, USA
Distance from station: NW 30mi, 49km
Updated: Thu, 23-May-2024 9:56am PDT
Clear
Clear
 Wind from NW
Wind: NW 10 mph, 17 km/h
Temperature: 63°F, 17°C
Dew Point: 46°F, 8°C
Humidity: 56%
Barometer: 29.94 inHg, 1013.9 hPa
Clouds: Clear
Visibility: 10 miles, 16 km
2024/05/23 16:56 KSFO 231656Z 31009KT 10SM CLR 17/08 A2994 RMK AO2 SLP139 T01670078
KE16 - San Martin, California, USA
Distance from station: ESE 27mi, 43km
Updated: Thu, 23-May-2024 10:15am PDT
Clear
Clear
 Wind from calm
Wind: Calm
Temperature: 59°F, 15°C
Dew Point: 46°F, 8°C
Humidity: 63%
Barometer: 29.96 inHg, 1014.6 hPa
Clouds: Clear
Visibility: 8 miles, 13 km
2024/05/23 17:15 KE16 231715Z AUTO 00000KT 8SM CLR 15/08 A2996 RMK AO2 PWINO PNO
 
KWVI - Watsonville, California, USA
Distance from station: SSE 27mi, 44km
Updated: Thu, 23-May-2024 10:13am PDT
Partly cloudy
Partly cloudy
 Wind from calm
Wind: Calm
Temperature: 59°F, 15°C
Dew Point: 48°F, 9°C
Humidity: 68%
Barometer: 29.96 inHg, 1014.6 hPa
Clouds: Partly cloudy
Visibility: 9 miles, 14 km
Cloud details: Partly cloudy 1400 ft
2024/05/23 17:13 KWVI 231713Z AUTO 00000KT 9SM SCT014 15/09 A2996 RMK AO2 T01500094
KHAF - Half Moon Bay, California, USA
Distance from station: WNW 31mi, 50km
Updated: Thu, 23-May-2024 10:35am PDT
Haze, Clear
Haze, Clear
 Wind from NNW
Wind: NNW 15 mph, 24 km/h
Temperature: 55°F, 13°C
Dew Point: 50°F, 10°C
Humidity: 82%
Barometer: 29.97 inHg, 1014.9 hPa
Summary: Haze
Clouds: Clear
Visibility: 4 miles, 6 km
2024/05/23 17:35 KHAF 231735Z AUTO 33013KT 4SM HZ CLR 13/10 A2997 RMK AO2
 
KHWD - Hayward, California, USA
Distance from station: N 28mi, 44km
Updated: Thu, 23-May-2024 9:54am PDT
Clear
Clear
 Wind from SW
Wind: SW 7 mph, 11 km/h
Temperature: 63°F, 17°C
Dew Point: 45°F, 7°C
Humidity: 52%
Barometer: 29.94 inHg, 1013.9 hPa
Clouds: Clear
Visibility: 10 miles, 16 km
2024/05/23 16:54 KHWD 231654Z 23006KT 10SM CLR 17/07 A2994 RMK AO2 SLP149 T01670067
KLVK - Livermore, California, USA
Distance from station: NNE 31mi, 51km
Updated: Thu, 23-May-2024 9:53am PDT
Clear
Clear
 Wind from varies
Wind: varies 6 mph, 9 km/h
Temperature: 63°F, 17°C
Dew Point: 43°F, 6°C
Humidity: 49%
Barometer: 29.93 inHg, 1013.5 hPa
Clouds: Clear
Visibility: 9 miles, 14 km
2024/05/23 16:53 KLVK 231653Z VRB05KT 9SM CLR 17/06 A2993 RMK AO2 SLP132 T01720061